sensor_id;sensor_type;location;lat;lon;timestamp;temperature;humidity
16437;DHT22;8328;52.206;21.006;2023-04-01T00:00:58;11.50;99.90
16437;DHT22;8328;52.206;21.006;2023-04-01T00:03:24;11.50;99.90
16437;DHT22;8328;52.206;21.006;2023-04-01T00:05:54;11.50;99.90
16437;DHT22;8328;52.206;21.006;2023-04-01T00:08:21;11.50;99.90
16437;DHT22;8328;52.206;21.006;2023-04-01T00:10:47;11.50;99.90
16437;DHT22;8328;52.206;21.006;2023-04-01T00:13:13;11.50;99.90
16437;DHT22;8328;52.206;21.006;2023-04-01T00:15:40;11.50;99.90
16437;DHT22;8328;52.206;21.006;2023-04-01T00:18:06;11.30;99.90
16437;DHT22;8328;52.206;21.006;2023-04-01T00:20:32;11.30;99.90
16437;DHT22;8328;52.206;21.006;2023-04-01T00:22:58;11.20;99.90
16437;DHT22;8328;52.206;21.006;2023-04-01T00:25:24;11.20;99.90
16437;DHT22;8328;52.206;21.006;2023-04-01T00:27:50;11.20;99.90
16437;DHT22;8328;52.206;21.006;2023-04-01T00:30:16;11.10;99.90
16437;DHT22;8328;52.206;21.006;2023-04-01T00:32:42;10.90;99.90
16437;DHT22;8328;52.206;21.006;2023-04-01T00:35:08;10.90;99.90
16437;DHT22;8328;52.206;21.006;2023-04-01T00:37:36;10.90;99.90
16437;DHT22;8328;52.206;21.006;2023-04-01T00:40:04;10.80;99.90
16437;DHT22;8328;52.206;21.006;2023-04-01T00:42:30;10.80;99.90
16437;DHT22;8328;52.206;21.006;2023-04-01T00:44:56;10.70;99.90
16437;DHT22;8328;52.206;21.006;2023-04-01T00:47:24;10.50;99.90
16437;DHT22;8328;52.206;21.006;2023-04-01T00:49:52;10.60;99.90
16437;DHT22;8328;52.206;21.006;2023-04-01T00:52:23;10.60;99.90
16437;DHT22;8328;52.206;21.006;2023-04-01T00:54:55;10.60;99.90
16437;DHT22;8328;52.206;21.006;2023-04-01T00:57:32;10.80;99.90
16437;DHT22;8328;52.206;21.006;2023-04-01T00:59:58;9.50;99.90
16437;DHT22;8328;52.206;21.006;2023-04-01T01:02:25;10.80;99.90
16437;DHT22;8328;52.206;21.006;2023-04-01T01:04:52;10.90;99.90
16437;DHT22;8328;52.206;21.006;2023-04-01T01:07:38;11.00;99.90
16437;DHT22;8328;52.206;21.006;2023-04-01T01:15:20;11.00;99.90
16437;DHT22;8328;52.206;21.006;2023-04-01T01:17:58;11.10;99.90
16437;DHT22;8328;52.206;21.006;2023-04-01T01:20:48;11.10;99.90
16437;DHT22;8328;52.206;21.006;2023-04-01T01:38:11;11.20;99.90
16437;DHT22;8328;52.206;21.006;2023-04-01T01:40:41;11.20;99.90
16437;DHT22;8328;52.206;21.006;2023-04-01T01:43:11;11.20;99.90
16437;DHT22;8328;52.206;21.006;2023-04-01T01:45:43;11.30;99.90
16437;DHT22;8328;52.206;21.006;2023-04-01T01:48:11;11.30;99.90
16437;DHT22;8328;52.206;21.006;2023-04-01T01:50:39;11.40;99.90
16437;DHT22;8328;52.206;21.006;2023-04-01T01:53:09;11.30;99.90
16437;DHT22;8328;52.206;21.006;2023-04-01T01:55:38;11.30;99.90
16437;DHT22;8328;52.206;21.006;2023-04-01T02:00:55;11.30;99.90
16437;DHT22;8328;52.206;21.006;2023-04-01T02:03:23;11.30;99.90
16437;DHT22;8328;52.206;21.006;2023-04-01T02:05:51;11.20;99.90
16437;DHT22;8328;52.206;21.006;2023-04-01T02:08:22;11.30;99.90
16437;DHT22;8328;52.206;21.006;2023-04-01T02:11:16;11.30;99.90
16437;DHT22;8328;52.206;21.006;2023-04-01T02:13:58;11.30;99.90
16437;DHT22;8328;52.206;21.006;2023-04-01T02:16:31;11.20;99.90
16437;DHT22;8328;52.206;21.006;2023-04-01T02:19:01;11.30;99.90
16437;DHT22;8328;52.206;21.006;2023-04-01T02:21:31;11.20;99.90
16437;DHT22;8328;52.206;21.006;2023-04-01T02:23:59;11.20;99.90
16437;DHT22;8328;52.206;21.006;2023-04-01T02:26:26;11.20;99.90
16437;DHT22;8328;52.206;21.006;2023-04-01T02:28:54;11.20;99.90
16437;DHT22;8328;52.206;21.006;2023-04-01T02:31:22;11.20;99.90
16437;DHT22;8328;52.206;21.006;2023-04-01T02:33:49;11.10;99.90
16437;DHT22;8328;52.206;21.006;2023-04-01T02:36:16;11.00;99.90
16437;DHT22;8328;52.206;21.006;2023-04-01T02:38:44;11.00;99.90
16437;DHT22;8328;52.206;21.006;2023-04-01T02:41:11;11.00;99.90
16437;DHT22;8328;52.206;21.006;2023-04-01T02:43:37;11.00;99.90
16437;DHT22;8328;52.206;21.006;2023-04-01T02:46:03;10.90;99.90
16437;DHT22;8328;52.206;21.006;2023-04-01T02:48:29;10.70;99.90
16437;DHT22;8328;52.206;21.006;2023-04-01T02:50:55;10.60;99.90
16437;DHT22;8328;52.206;21.006;2023-04-01T02:53:21;10.50;99.90
16437;DHT22;8328;52.206;21.006;2023-04-01T02:55:47;10.30;99.90
16437;DHT22;8328;52.206;21.006;2023-04-01T02:58:16;10.30;99.90
16437;DHT22;8328;52.206;21.006;2023-04-01T03:00:42;10.30;99.90
16437;DHT22;8328;52.206;21.006;2023-04-01T03:03:09;10.20;99.90
16437;DHT22;8328;52.206;21.006;2023-04-01T03:05:35;10.10;99.90
16437;DHT22;8328;52.206;21.006;2023-04-01T03:08:01;10.00;99.90
16437;DHT22;8328;52.206;21.006;2023-04-01T03:10:27;10.10;99.90
16437;DHT22;8328;52.206;21.006;2023-04-01T03:12:52;10.30;99.90
16437;DHT22;8328;52.206;21.006;2023-04-01T03:15:18;10.50;99.90
16437;DHT22;8328;52.206;21.006;2023-04-01T03:17:44;10.50;99.90
16437;DHT22;8328;52.206;21.006;2023-04-01T03:20:12;10.60;99.90
16437;DHT22;8328;52.206;21.006;2023-04-01T03:22:38;10.60;99.90
16437;DHT22;8328;52.206;21.006;2023-04-01T03:25:05;10.60;99.90
16437;DHT22;8328;52.206;21.006;2023-04-01T03:27:33;10.60;99.90
16437;DHT22;8328;52.206;21.006;2023-04-01T03:29:59;10.60;99.90
16437;DHT22;8328;52.206;21.006;2023-04-01T03:32:25;10.50;99.90
16437;DHT22;8328;52.206;21.006;2023-04-01T03:34:52;10.50;99.90
16437;DHT22;8328;52.206;21.006;2023-04-01T03:37:18;10.50;99.90
16437;DHT22;8328;52.206;21.006;2023-04-01T03:39:44;10.50;99.90
16437;DHT22;8328;52.206;21.006;2023-04-01T03:42:11;10.50;99.90
16437;DHT22;8328;52.206;21.006;2023-04-01T03:44:36;10.50;99.90
16437;DHT22;8328;52.206;21.006;2023-04-01T03:47:02;10.50;99.90
16437;DHT22;8328;52.206;21.006;2023-04-01T03:49:29;10.50;99.90
16437;DHT22;8328;52.206;21.006;2023-04-01T03:51:55;10.50;99.90
16437;DHT22;8328;52.206;21.006;2023-04-01T03:54:21;10.60;99.90
16437;DHT22;8328;52.206;21.006;2023-04-01T03:56:48;10.50;99.90
16437;DHT22;8328;52.206;21.006;2023-04-01T03:59:13;10.60;99.90
16437;DHT22;8328;52.206;21.006;2023-04-01T04:01:39;10.60;99.90
16437;DHT22;8328;52.206;21.006;2023-04-01T04:04:05;10.60;99.90
16437;DHT22;8328;52.206;21.006;2023-04-01T04:06:32;10.60;99.90
16437;DHT22;8328;52.206;21.006;2023-04-01T04:08:57;10.60;99.90
16437;DHT22;8328;52.206;21.006;2023-04-01T04:11:23;10.60;99.90
16437;DHT22;8328;52.206;21.006;2023-04-01T04:13:49;10.70;99.90
16437;DHT22;8328;52.206;21.006;2023-04-01T04:16:16;10.70;99.90
16437;DHT22;8328;52.206;21.006;2023-04-01T04:18:42;10.70;99.90
16437;DHT22;8328;52.206;21.006;2023-04-01T04:21:14;10.60;99.90
16437;DHT22;8328;52.206;21.006;2023-04-01T04:23:41;10.70;99.90
16437;DHT22;8328;52.206;21.006;2023-04-01T04:26:09;10.70;99.90
16437;DHT22;8328;52.206;21.006;2023-04-01T04:28:35;10.70;99.90
16437;DHT22;8328;52.206;21.006;2023-04-01T04:31:01;10.70;99.90
16437;DHT22;8328;52.206;21.006;2023-04-01T04:33:28;10.70;99.90
16437;DHT22;8328;52.206;21.006;2023-04-01T04:35:58;10.60;99.90
16437;DHT22;8328;52.206;21.006;2023-04-01T04:38:24;10.70;99.90
16437;DHT22;8328;52.206;21.006;2023-04-01T04:40:50;10.70;99.90
16437;DHT22;8328;52.206;21.006;2023-04-01T04:43:17;10.70;99.90
16437;DHT22;8328;52.206;21.006;2023-04-01T04:45:43;10.80;99.90
16437;DHT22;8328;52.206;21.006;2023-04-01T04:48:10;10.90;99.90
16437;DHT22;8328;52.206;21.006;2023-04-01T04:50:40;10.90;99.90
16437;DHT22;8328;52.206;21.006;2023-04-01T04:53:05;10.80;99.90
16437;DHT22;8328;52.206;21.006;2023-04-01T04:55:31;10.80;99.90
16437;DHT22;8328;52.206;21.006;2023-04-01T04:57:57;10.70;99.90
16437;DHT22;8328;52.206;21.006;2023-04-01T05:00:23;10.70;99.90
16437;DHT22;8328;52.206;21.006;2023-04-01T05:02:48;10.80;99.90
16437;DHT22;8328;52.206;21.006;2023-04-01T05:05:14;10.60;99.90
16437;DHT22;8328;52.206;21.006;2023-04-01T05:07:41;10.50;99.90
16437;DHT22;8328;52.206;21.006;2023-04-01T05:10:07;10.60;99.90
16437;DHT22;8328;52.206;21.006;2023-04-01T05:12:33;10.70;99.90
16437;DHT22;8328;52.206;21.006;2023-04-01T05:15:04;10.70;99.90
16437;DHT22;8328;52.206;21.006;2023-04-01T05:17:31;10.80;99.90
16437;DHT22;8328;52.206;21.006;2023-04-01T05:19:57;10.80;99.90
16437;DHT22;8328;52.206;21.006;2023-04-01T05:22:23;10.80;99.90
16437;DHT22;8328;52.206;21.006;2023-04-01T05:24:49;10.90;99.90
16437;DHT22;8328;52.206;21.006;2023-04-01T05:27:14;10.90;99.90
16437;DHT22;8328;52.206;21.006;2023-04-01T05:29:40;10.90;99.90
16437;DHT22;8328;52.206;21.006;2023-04-01T05:32:06;11.00;99.90
16437;DHT22;8328;52.206;21.006;2023-04-01T05:34:32;11.10;99.90
16437;DHT22;8328;52.206;21.006;2023-04-01T05:36:58;11.20;99.90
16437;DHT22;8328;52.206;21.006;2023-04-01T05:39:24;11.90;99.90
16437;DHT22;8328;52.206;21.006;2023-04-01T05:41:49;11.50;99.90
16437;DHT22;8328;52.206;21.006;2023-04-01T05:44:15;11.60;99.90
16437;DHT22;8328;52.206;21.006;2023-04-01T05:46:41;11.80;99.90
16437;DHT22;8328;52.206;21.006;2023-04-01T05:49:08;11.70;99.90
16437;DHT22;8328;52.206;21.006;2023-04-01T05:51:34;11.60;99.90
16437;DHT22;8328;52.206;21.006;2023-04-01T05:54:00;11.80;99.90
16437;DHT22;8328;52.206;21.006;2023-04-01T05:56:25;11.90;99.90
16437;DHT22;8328;52.206;21.006;2023-04-01T05:58:53;11.90;99.90
16437;DHT22;8328;52.206;21.006;2023-04-01T06:01:19;12.30;99.90
16437;DHT22;8328;52.206;21.006;2023-04-01T06:03:45;12.80;99.90
16437;DHT22;8328;52.206;21.006;2023-04-01T06:06:14;13.00;99.90
16437;DHT22;8328;52.206;21.006;2023-04-01T06:08:41;12.90;99.90
16437;DHT22;8328;52.206;21.006;2023-04-01T06:11:18;12.90;99.90
16437;DHT22;8328;52.206;21.006;2023-04-01T06:17:32;11.30;99.90
16437;DHT22;8328;52.206;21.006;2023-04-01T06:22:55;13.30;99.90
16437;DHT22;8328;52.206;21.006;2023-04-01T06:31:19;13.50;99.90
16437;DHT22;8328;52.206;21.006;2023-04-01T06:40:25;13.50;99.90
16437;DHT22;8328;52.206;21.006;2023-04-01T06:42:58;13.30;99.90
16437;DHT22;8328;52.206;21.006;2023-04-01T06:46:05;13.00;99.90
16437;DHT22;8328;52.206;21.006;2023-04-01T06:49:07;13.10;99.90
16437;DHT22;8328;52.206;21.006;2023-04-01T06:54:19;12.20;99.90
16437;DHT22;8328;52.206;21.006;2023-04-01T06:56:48;13.40;99.90
16437;DHT22;8328;52.206;21.006;2023-04-01T06:59:25;13.50;99.90
16437;DHT22;8328;52.206;21.006;2023-04-01T07:02:04;13.30;99.90
16437;DHT22;8328;52.206;21.006;2023-04-01T07:04:43;13.30;99.90
16437;DHT22;8328;52.206;21.006;2023-04-01T07:09:52;13.60;99.90
16437;DHT22;8328;52.206;21.006;2023-04-01T07:12:37;13.80;99.90
16437;DHT22;8328;52.206;21.006;2023-04-01T07:15:20;13.80;99.90
16437;DHT22;8328;52.206;21.006;2023-04-01T07:17:57;13.60;99.90
16437;DHT22;8328;52.206;21.006;2023-04-01T07:20:30;13.40;99.90
16437;DHT22;8328;52.206;21.006;2023-04-01T07:23:25;13.00;99.90
16437;DHT22;8328;52.206;21.006;2023-04-01T07:26:01;12.70;99.90
16437;DHT22;8328;52.206;21.006;2023-04-01T07:28:31;12.50;99.90
16437;DHT22;8328;52.206;21.006;2023-04-01T07:34:14;12.30;99.90
16437;DHT22;8328;52.206;21.006;2023-04-01T07:37:01;12.10;99.90
16437;DHT22;8328;52.206;21.006;2023-04-01T07:40:03;12.40;99.90
16437;DHT22;8328;52.206;21.006;2023-04-01T07:45:27;13.10;99.90
16437;DHT22;8328;52.206;21.006;2023-04-01T07:51:02;13.60;99.90
16437;DHT22;8328;52.206;21.006;2023-04-01T08:04:43;14.50;99.90
16437;DHT22;8328;52.206;21.006;2023-04-01T08:07:24;14.60;99.90
16437;DHT22;8328;52.206;21.006;2023-04-01T08:10:07;15.10;99.90
16437;DHT22;8328;52.206;21.006;2023-04-01T08:12:48;15.00;99.90
16437;DHT22;8328;52.206;21.006;2023-04-01T08:15:32;14.90;99.90
16437;DHT22;8328;52.206;21.006;2023-04-01T08:21:20;14.80;99.90
16437;DHT22;8328;52.206;21.006;2023-04-01T08:23:49;14.80;99.90
16437;DHT22;8328;52.206;21.006;2023-04-01T08:26:20;15.00;99.90
16437;DHT22;8328;52.206;21.006;2023-04-01T08:32:32;15.40;99.90
16437;DHT22;8328;52.206;21.006;2023-04-01T08:34:40;15.20;99.90
16437;DHT22;8328;52.206;21.006;2023-04-01T08:37:16;14.70;99.90
16437;DHT22;8328;52.206;21.006;2023-04-01T08:48:19;14.50;99.90
16437;DHT22;8328;52.206;21.006;2023-04-01T08:51:08;14.20;99.90
16437;DHT22;8328;52.206;21.006;2023-04-01T08:53:56;14.00;99.90
16437;DHT22;8328;52.206;21.006;2023-04-01T08:56:42;13.70;99.90
16437;DHT22;8328;52.206;21.006;2023-04-01T08:59:32;13.60;99.90
16437;DHT22;8328;52.206;21.006;2023-04-01T09:10:36;15.00;99.90
16437;DHT22;8328;52.206;21.006;2023-04-01T09:27:07;14.30;99.90
16437;DHT22;8328;52.206;21.006;2023-04-01T09:32:05;14.00;99.90
16437;DHT22;8328;52.206;21.006;2023-04-01T09:34:57;13.50;99.90
16437;DHT22;8328;52.206;21.006;2023-04-01T09:37:47;13.10;99.90
16437;DHT22;8328;52.206;21.006;2023-04-01T09:46:15;12.40;99.90
16437;DHT22;8328;52.206;21.006;2023-04-01T09:48:53;12.40;99.90
16437;DHT22;8328;52.206;21.006;2023-04-01T09:59:53;13.30;99.90
16437;DHT22;8328;52.206;21.006;2023-04-01T10:13:32;15.20;99.90
16437;DHT22;8328;52.206;21.006;2023-04-01T10:16:20;15.10;99.90
16437;DHT22;8328;52.206;21.006;2023-04-01T10:19:16;14.80;99.90
16437;DHT22;8328;52.206;21.006;2023-04-01T10:34:56;14.20;99.90
16437;DHT22;8328;52.206;21.006;2023-04-01T10:51:34;14.50;99.90
16437;DHT22;8328;52.206;21.006;2023-04-01T10:57:07;14.40;99.90
16437;DHT22;8328;52.206;21.006;2023-04-01T11:11:20;15.10;99.90
16437;DHT22;8328;52.206;21.006;2023-04-01T11:33:23;17.90;99.90
16437;DHT22;8328;52.206;21.006;2023-04-01T11:44:18;18.20;99.90
16437;DHT22;8328;52.206;21.006;2023-04-01T11:49:42;17.80;99.90
16437;DHT22;8328;52.206;21.006;2023-04-01T11:58:26;17.50;99.90
16437;DHT22;8328;52.206;21.006;2023-04-01T12:03:54;16.40;99.90
16437;DHT22;8328;52.206;21.006;2023-04-01T12:06:40;16.20;99.90
16437;DHT22;8328;52.206;21.006;2023-04-01T12:09:41;16.20;99.90
16437;DHT22;8328;52.206;21.006;2023-04-01T12:12:24;16.50;99.90
16437;DHT22;8328;52.206;21.006;2023-04-01T12:15:20;16.70;99.90
16437;DHT22;8328;52.206;21.006;2023-04-01T12:18:05;17.00;99.90
16437;DHT22;8328;52.206;21.006;2023-04-01T12:21:36;17.10;99.90
16437;DHT22;8328;52.206;21.006;2023-04-01T12:27:22;17.20;99.90
16437;DHT22;8328;52.206;21.006;2023-04-01T12:37:55;17.70;99.90
16437;DHT22;8328;52.206;21.006;2023-04-01T12:43:57;19.20;99.90
16437;DHT22;8328;52.206;21.006;2023-04-01T12:52:14;20.70;99.90
16437;DHT22;8328;52.206;21.006;2023-04-01T12:55:02;21.20;99.90
16437;DHT22;8328;52.206;21.006;2023-04-01T13:03:16;20.60;99.90
16437;DHT22;8328;52.206;21.006;2023-04-01T13:06:10;19.60;99.90
16437;DHT22;8328;52.206;21.006;2023-04-01T13:20:03;16.30;99.90
16437;DHT22;8328;52.206;21.006;2023-04-01T13:22:41;15.60;99.90
16437;DHT22;8328;52.206;21.006;2023-04-01T13:25:23;15.10;99.90
16437;DHT22;8328;52.206;21.006;2023-04-01T13:30:47;14.50;99.90
16437;DHT22;8328;52.206;21.006;2023-04-01T13:33:30;14.20;99.90
16437;DHT22;8328;52.206;21.006;2023-04-01T13:44:28;13.00;99.90
16437;DHT22;8328;52.206;21.006;2023-04-01T13:53:10;12.40;99.90
16437;DHT22;8328;52.206;21.006;2023-04-01T13:56:16;12.50;99.90
16437;DHT22;8328;52.206;21.006;2023-04-01T13:59:21;12.60;99.90
16437;DHT22;8328;52.206;21.006;2023-04-01T14:01:55;12.90;99.90
16437;DHT22;8328;52.206;21.006;2023-04-01T14:04:34;13.20;99.90
16437;DHT22;8328;52.206;21.006;2023-04-01T14:07:44;13.40;99.90
16437;DHT22;8328;52.206;21.006;2023-04-01T14:10:43;13.90;99.90
16437;DHT22;8328;52.206;21.006;2023-04-01T14:19:08;14.80;99.90
16437;DHT22;8328;52.206;21.006;2023-04-01T14:25:29;14.00;99.90
16437;DHT22;8328;52.206;21.006;2023-04-01T14:28:03;13.60;99.90
16437;DHT22;8328;52.206;21.006;2023-04-01T14:30:33;13.40;99.90
16437;DHT22;8328;52.206;21.006;2023-04-01T14:50:16;13.20;99.90
16437;DHT22;8328;52.206;21.006;2023-04-01T14:58:44;12.80;99.90
16437;DHT22;8328;52.206;21.006;2023-04-01T15:01:37;12.80;99.90
16437;DHT22;8328;52.206;21.006;2023-04-01T15:12:48;12.40;99.90
16437;DHT22;8328;52.206;21.006;2023-04-01T15:38:11;11.70;99.90
16437;DHT22;8328;52.206;21.006;2023-04-01T15:41:01;11.50;99.90
16437;DHT22;8328;52.206;21.006;2023-04-01T15:43:48;11.30;99.90
16437;DHT22;8328;52.206;21.006;2023-04-01T15:46:30;11.40;99.90
16437;DHT22;8328;52.206;21.006;2023-04-01T15:49:43;11.60;99.90
16437;DHT22;8328;52.206;21.006;2023-04-01T15:52:19;11.50;99.90
16437;DHT22;8328;52.206;21.006;2023-04-01T15:55:14;11.50;99.90
16437;DHT22;8328;52.206;21.006;2023-04-01T16:00:28;11.20;99.90
16437;DHT22;8328;52.206;21.006;2023-04-01T16:03:18;11.30;99.90
16437;DHT22;8328;52.206;21.006;2023-04-01T16:12:19;11.40;99.90
16437;DHT22;8328;52.206;21.006;2023-04-01T16:15:17;11.40;99.90
16437;DHT22;8328;52.206;21.006;2023-04-01T16:18:28;11.30;99.90
16437;DHT22;8328;52.206;21.006;2023-04-01T16:21:14;11.30;99.90
16437;DHT22;8328;52.206;21.006;2023-04-01T16:23:55;11.30;99.90
16437;DHT22;8328;52.206;21.006;2023-04-01T16:34:41;11.20;99.90
16437;DHT22;8328;52.206;21.006;2023-04-01T16:38:00;11.10;99.90
16437;DHT22;8328;52.206;21.006;2023-04-01T16:43:21;11.00;99.90
16437;DHT22;8328;52.206;21.006;2023-04-01T16:59:22;10.70;99.90
16437;DHT22;8328;52.206;21.006;2023-04-01T17:02:00;10.70;99.90
16437;DHT22;8328;52.206;21.006;2023-04-01T17:04:34;10.70;99.90
16437;DHT22;8328;52.206;21.006;2023-04-01T17:07:25;10.60;99.90
16437;DHT22;8328;52.206;21.006;2023-04-01T17:16:10;10.40;99.90
16437;DHT22;8328;52.206;21.006;2023-04-01T17:18:46;10.40;99.90
16437;DHT22;8328;52.206;21.006;2023-04-01T17:24:22;10.30;99.90
16437;DHT22;8328;52.206;21.006;2023-04-01T17:27:21;10.30;99.90
16437;DHT22;8328;52.206;21.006;2023-04-01T17:32:52;10.20;99.90
16437;DHT22;8328;52.206;21.006;2023-04-01T17:38:34;10.20;99.90
16437;DHT22;8328;52.206;21.006;2023-04-01T17:41:25;10.10;99.90
16437;DHT22;8328;52.206;21.006;2023-04-01T18:03:45;10.20;99.90
16437;DHT22;8328;52.206;21.006;2023-04-01T18:06:19;10.20;99.90
16437;DHT22;8328;52.206;21.006;2023-04-01T18:08:57;10.10;99.90
16437;DHT22;8328;52.206;21.006;2023-04-01T18:23:02;10.20;99.90
16437;DHT22;8328;52.206;21.006;2023-04-01T18:25:40;10.30;99.90
16437;DHT22;8328;52.206;21.006;2023-04-01T18:28:44;10.30;99.90
16437;DHT22;8328;52.206;21.006;2023-04-01T18:31:18;10.30;99.90
16437;DHT22;8328;52.206;21.006;2023-04-01T18:33:59;10.20;99.90
16437;DHT22;8328;52.206;21.006;2023-04-01T18:39:08;10.20;99.90
16437;DHT22;8328;52.206;21.006;2023-04-01T18:44:19;10.10;99.90
16437;DHT22;8328;52.206;21.006;2023-04-01T18:50:51;9.90;99.90
16437;DHT22;8328;52.206;21.006;2023-04-01T18:52:47;10.10;99.90
16437;DHT22;8328;52.206;21.006;2023-04-01T18:55:41;10.10;99.90
16437;DHT22;8328;52.206;21.006;2023-04-01T18:58:23;10.00;99.90
16437;DHT22;8328;52.206;21.006;2023-04-01T19:01:02;10.10;99.90
16437;DHT22;8328;52.206;21.006;2023-04-01T19:03:53;10.10;99.90
16437;DHT22;8328;52.206;21.006;2023-04-01T19:06:28;10.10;99.90
16437;DHT22;8328;52.206;21.006;2023-04-01T19:10:01;10.10;99.90
16437;DHT22;8328;52.206;21.006;2023-04-01T19:15:09;10.10;99.90
16437;DHT22;8328;52.206;21.006;2023-04-01T19:18:01;10.00;99.90
16437;DHT22;8328;52.206;21.006;2023-04-01T19:20:36;9.90;99.90
16437;DHT22;8328;52.206;21.006;2023-04-01T19:37:26;9.90;99.90
16437;DHT22;8328;52.206;21.006;2023-04-01T19:39:58;7.70;99.90
16437;DHT22;8328;52.206;21.006;2023-04-01T19:45:38;10.00;99.90
16437;DHT22;8328;52.206;21.006;2023-04-01T19:50:57;9.80;99.90
16437;DHT22;8328;52.206;21.006;2023-04-01T19:56:18;9.70;99.90
16437;DHT22;8328;52.206;21.006;2023-04-01T19:58:54;9.70;99.90
16437;DHT22;8328;52.206;21.006;2023-04-01T20:01:44;9.50;99.90
16437;DHT22;8328;52.206;21.006;2023-04-01T20:04:17;9.70;99.90
16437;DHT22;8328;52.206;21.006;2023-04-01T20:07:00;9.60;99.90
16437;DHT22;8328;52.206;21.006;2023-04-01T20:14:50;9.70;99.90
16437;DHT22;8328;52.206;21.006;2023-04-01T20:20:14;9.40;99.90
16437;DHT22;8328;52.206;21.006;2023-04-01T20:23:17;9.30;99.90
16437;DHT22;8328;52.206;21.006;2023-04-01T20:25:54;9.40;99.90
16437;DHT22;8328;52.206;21.006;2023-04-01T20:28:58;9.40;99.90
16437;DHT22;8328;52.206;21.006;2023-04-01T20:31:42;9.30;99.90
16437;DHT22;8328;52.206;21.006;2023-04-01T20:34:48;9.30;99.90
16437;DHT22;8328;52.206;21.006;2023-04-01T20:37:23;9.30;99.90
16437;DHT22;8328;52.206;21.006;2023-04-01T20:40:26;9.40;99.90
16437;DHT22;8328;52.206;21.006;2023-04-01T20:45:48;9.60;99.90
16437;DHT22;8328;52.206;21.006;2023-04-01T20:51:07;9.30;99.90
16437;DHT22;8328;52.206;21.006;2023-04-01T20:54:12;9.30;99.90
16437;DHT22;8328;52.206;21.006;2023-04-01T21:14:07;9.20;99.90
16437;DHT22;8328;52.206;21.006;2023-04-01T21:19:48;9.00;99.90
16437;DHT22;8328;52.206;21.006;2023-04-01T21:25:27;9.00;99.90
16437;DHT22;8328;52.206;21.006;2023-04-01T21:28:22;9.00;99.90
16437;DHT22;8328;52.206;21.006;2023-04-01T21:31:27;9.10;99.90
16437;DHT22;8328;52.206;21.006;2023-04-01T21:39:40;9.00;99.90
16437;DHT22;8328;52.206;21.006;2023-04-01T21:50:34;8.80;99.90
16437;DHT22;8328;52.206;21.006;2023-04-01T22:02:27;8.90;99.90
16437;DHT22;8328;52.206;21.006;2023-04-01T22:07:56;8.90;99.90
16437;DHT22;8328;52.206;21.006;2023-04-01T22:10:47;8.90;99.90
16437;DHT22;8328;52.206;21.006;2023-04-01T22:13:20;8.90;99.90
16437;DHT22;8328;52.206;21.006;2023-04-01T22:18:42;8.90;99.90
16437;DHT22;8328;52.206;21.006;2023-04-01T22:26:31;9.00;99.90
16437;DHT22;8328;52.206;21.006;2023-04-01T22:31:56;8.90;99.90
16437;DHT22;8328;52.206;21.006;2023-04-01T22:34:42;8.80;99.90
16437;DHT22;8328;52.206;21.006;2023-04-01T22:42:52;8.80;99.90
16437;DHT22;8328;52.206;21.006;2023-04-01T22:50:40;8.80;99.90
16437;DHT22;8328;52.206;21.006;2023-04-01T22:53:37;8.70;99.90
16437;DHT22;8328;52.206;21.006;2023-04-01T22:56:09;8.70;99.90
16437;DHT22;8328;52.206;21.006;2023-04-01T22:58:42;8.70;99.90
16437;DHT22;8328;52.206;21.006;2023-04-01T23:01:19;8.60;99.90
16437;DHT22;8328;52.206;21.006;2023-04-01T23:03:49;8.60;99.90
16437;DHT22;8328;52.206;21.006;2023-04-01T23:06:33;8.60;99.90
16437;DHT22;8328;52.206;21.006;2023-04-01T23:12:09;8.70;99.90
16437;DHT22;8328;52.206;21.006;2023-04-01T23:28:20;8.50;99.90
16437;DHT22;8328;52.206;21.006;2023-04-01T23:30:51;8.50;99.90
16437;DHT22;8328;52.206;21.006;2023-04-01T23:33:30;8.40;99.90
16437;DHT22;8328;52.206;21.006;2023-04-01T23:36:00;8.30;99.90
16437;DHT22;8328;52.206;21.006;2023-04-01T23:38:38;8.30;99.90
16437;DHT22;8328;52.206;21.006;2023-04-01T23:41:05;8.40;99.90
16437;DHT22;8328;52.206;21.006;2023-04-01T23:43:37;8.40;99.90
16437;DHT22;8328;52.206;21.006;2023-04-01T23:46:04;8.40;99.90
16437;DHT22;8328;52.206;21.006;2023-04-01T23:48:39;8.50;99.90
16437;DHT22;8328;52.206;21.006;2023-04-01T23:51:18;8.50;99.90
16437;DHT22;8328;52.206;21.006;2023-04-01T23:53:46;8.50;99.90
16437;DHT22;8328;52.206;21.006;2023-04-01T23:56:16;8.50;99.90
16437;DHT22;8328;52.206;21.006;2023-04-01T23:58:47;8.60;99.90
